Time;durP1;ratioP1;P1;durP2;ratioP2;P2;SDS_P1;SDS_P2;PMS_P1;PMS_P2;Temp;Humidity;BMP_temperature;BMP_pressure;BME280_temperature;BME280_humidity;BME280_pressure;Samples;Min_cycle;Max_cycle;Signal;HPM_P1;HPM_P2
2021/10/05 00:01:47;;;;;;;2.80;1.40;;;;;;;9.42;87.58;100868.61;115592;1193;60455;-81
2021/10/05 00:04:14;;;;;;;2.20;1.10;;;;;;;9.42;87.35;100859.98;115683;1193;71360;-81
2021/10/05 00:06:41;;;;;;;3.20;1.30;;;;;;;9.41;87.12;100854.20;115539;1193;73673;-81
2021/10/05 00:09:07;;;;;;;2.70;1.60;;;;;;;9.41;87.11;100851.95;115600;1193;63181;-81
2021/10/05 00:11:35;;;;;;;3.50;1.30;;;;;;;9.41;86.86;100856.88;115756;1192;61267;-82
2021/10/05 00:14:03;;;;;;;2.60;1.10;;;;;;;9.38;87.01;100864.73;115742;1193;74773;-81
2021/10/05 00:16:29;;;;;;;2.00;1.20;;;;;;;9.36;87.27;100868.86;115748;1187;70982;-81
2021/10/05 00:18:56;;;;;;;2.60;1.20;;;;;;;9.34;87.41;100870.73;115632;1193;73178;-81
2021/10/05 00:21:22;;;;;;;4.10;1.30;;;;;;;9.33;87.63;100869.33;115677;1192;59953;-81
2021/10/05 00:23:49;;;;;;;3.40;1.00;;;;;;;9.32;87.87;100867.70;115631;1193;60141;-81
2021/10/05 00:26:16;;;;;;;3.10;1.20;;;;;;;9.32;88.25;100859.88;115723;1192;75223;-81
2021/10/05 00:28:42;;;;;;;2.50;1.20;;;;;;;9.34;88.49;100855.81;116029;1192;71188;-81
2021/10/05 00:31:09;;;;;;;4.40;1.30;;;;;;;9.36;88.25;100853.34;115641;1193;73144;-81
2021/10/05 00:33:35;;;;;;;2.50;1.20;;;;;;;9.38;88.34;100848.14;115757;1192;60359;-81
2021/10/05 00:36:02;;;;;;;2.30;0.90;;;;;;;9.42;88.50;100847.29;115810;1192;59936;-81
2021/10/05 00:38:29;;;;;;;2.50;1.30;;;;;;;9.46;88.89;100845.24;115636;1192;76436;-81
2021/10/05 00:40:55;;;;;;;1.30;0.80;;;;;;;9.50;88.58;100836.27;115852;1192;59921;-81
2021/10/05 00:43:23;;;;;;;2.70;1.20;;;;;;;9.54;88.82;100829.56;115662;1192;73565;-81
2021/10/05 00:45:50;;;;;;;2.70;1.00;;;;;;;9.57;88.62;100824.55;115737;1192;59911;-81
2021/10/05 00:48:17;;;;;;;2.00;1.10;;;;;;;9.60;88.29;100815.47;115623;1193;61449;-81
2021/10/05 00:50:44;;;;;;;2.90;1.50;;;;;;;9.63;88.10;100815.13;115689;1193;60313;-81
2021/10/05 00:53:12;;;;;;;2.20;1.20;;;;;;;9.64;88.03;100811.98;115659;1193;72204;-81
2021/10/05 00:55:39;;;;;;;2.60;1.20;;;;;;;9.65;87.91;100809.96;115627;1192;73888;-81
2021/10/05 00:58:06;;;;;;;1.80;0.80;;;;;;;9.68;88.07;100811.74;115777;1192;61692;-81
2021/10/05 01:00:33;;;;;;;2.30;1.20;;;;;;;9.70;88.01;100806.26;115675;1193;60183;-82
2021/10/05 01:03:00;;;;;;;1.70;0.90;;;;;;;9.73;87.94;100806.45;115614;1192;76382;-81
2021/10/05 01:05:27;;;;;;;3.10;1.00;;;;;;;9.75;87.84;100803.17;115876;1193;72188;-82
2021/10/05 01:07:54;;;;;;;2.00;1.10;;;;;;;9.78;87.78;100797.59;115741;1193;73811;-81
2021/10/05 01:10:21;;;;;;;2.40;1.00;;;;;;;9.80;87.80;100799.32;115760;1193;60286;-81
2021/10/05 01:12:49;;;;;;;1.90;1.10;;;;;;;9.82;87.60;100796.50;115548;1193;59650;-82
2021/10/05 01:15:17;;;;;;;3.40;1.20;;;;;;;9.83;87.55;100792.00;115654;1193;75220;-82
2021/10/05 01:17:44;;;;;;;3.20;1.00;;;;;;;9.84;87.63;100785.01;115765;1192;72064;-82
2021/10/05 01:20:11;;;;;;;6.00;1.50;;;;;;;9.86;87.50;100785.07;115785;1192;73153;-81
2021/10/05 01:22:38;;;;;;;2.10;1.10;;;;;;;9.88;87.52;100780.48;115726;1192;63925;-81
2021/10/05 01:25:11;;;;;;;2.50;1.10;;;;;;;9.90;87.52;100784.48;115878;1192;61307;-82
2021/10/05 01:27:49;;;;;;;1.80;1.20;;;;;;;9.92;87.40;100783.75;115468;1193;76751;-81
2021/10/05 01:30:18;;;;;;;2.40;0.90;;;;;;;9.95;87.17;100783.41;115600;1193;72053;-81
2021/10/05 01:32:45;;;;;;;2.70;1.00;;;;;;;9.97;87.15;100781.94;115631;1192;73598;-81
2021/10/05 01:35:13;;;;;;;3.00;1.10;;;;;;;10.00;87.20;100781.77;115840;1192;60356;-81
2021/10/05 01:37:40;;;;;;;1.70;1.00;;;;;;;10.01;87.02;100774.95;115596;1192;60175;-81
2021/10/05 01:40:10;;;;;;;2.60;1.30;;;;;;;10.02;87.02;100769.68;115643;1193;75469;-80
2021/10/05 01:42:37;;;;;;;7.20;1.50;;;;;;;10.03;86.78;100762.34;115632;1193;73412;-81
2021/10/05 01:45:05;;;;;;;2.90;1.50;;;;;;;10.00;86.40;100762.14;115626;1193;72678;-80
2021/10/05 01:47:32;;;;;;;3.10;1.70;;;;;;;9.96;86.42;100758.52;115557;1193;62083;-80
2021/10/05 01:49:58;;;;;;;1.90;1.30;;;;;;;9.92;86.39;100747.98;115792;1192;60497;-80
2021/10/05 01:52:25;;;;;;;3.10;1.50;;;;;;;9.88;86.21;100745.27;115777;1192;75423;-80
2021/10/05 01:54:51;;;;;;;3.20;1.30;;;;;;;9.84;86.37;100744.68;115785;1192;72101;-80
2021/10/05 01:57:18;;;;;;;2.00;1.10;;;;;;;9.82;86.32;100746.50;115674;1192;60047;-80
2021/10/05 01:59:44;;;;;;;4.70;1.40;;;;;;;9.79;86.45;100742.20;115656;1193;62247;-80
2021/10/05 02:02:11;;;;;;;2.50;1.30;;;;;;;9.77;86.62;100738.73;115703;1193;60493;-80
2021/10/05 02:04:40;;;;;;;2.50;1.80;;;;;;;9.76;86.75;100738.59;115765;1192;76391;-81
2021/10/05 02:07:06;;;;;;;2.00;1.20;;;;;;;9.75;86.66;100732.91;115567;1193;71053;-80
2021/10/05 02:09:33;;;;;;;6.20;1.90;;;;;;;9.74;86.71;100727.80;115724;1193;73663;-80
2021/10/05 02:12:00;;;;;;;3.50;1.40;;;;;;;9.72;87.01;100728.51;115739;1192;63405;-80
2021/10/05 02:14:26;;;;;;;2.30;1.10;;;;;;;9.70;87.20;100723.64;115580;1193;61424;-80
2021/10/05 02:16:53;;;;;;;2.50;1.20;;;;;;;9.68;87.85;100716.58;115608;1193;59824;-80
2021/10/05 02:19:19;;;;;;;5.00;1.00;;;;;;;9.66;88.24;100711.16;115759;1192;70800;-81
2021/10/05 02:21:46;;;;;;;1.50;1.10;;;;;;;9.66;88.94;100711.33;115550;1193;59912;-81
2021/10/05 02:26:48;;;;;;;1.80;1.00;;;;;;;9.66;89.54;100709.94;115660;1192;59740;-80
2021/10/05 02:29:14;;;;;;;2.50;1.30;;;;;;;9.67;89.12;100708.39;115715;1192;75667;-80
2021/10/05 02:31:41;;;;;;;1.90;1.20;;;;;;;9.68;89.17;100701.36;115835;1192;71731;-79
2021/10/05 02:34:08;;;;;;;3.30;1.20;;;;;;;9.71;89.04;100700.92;115706;1192;72586;-79
2021/10/05 02:36:34;;;;;;;2.90;1.20;;;;;;;9.73;88.97;100693.77;115616;1193;62921;-80
2021/10/05 02:39:02;;;;;;;2.10;1.40;;;;;;;9.76;88.93;100696.02;115784;1192;60236;-80
2021/10/05 02:41:29;;;;;;;2.00;1.20;;;;;;;9.81;88.85;100692.48;115875;1193;74400;-80
2021/10/05 02:43:55;;;;;;;3.50;1.10;;;;;;;9.86;88.79;100689.52;116100;1192;70958;-80
2021/10/05 02:46:22;;;;;;;4.70;1.30;;;;;;;9.88;88.64;100687.56;115712;1193;71728;-80
2021/10/05 02:48:48;;;;;;;3.70;1.60;;;;;;;9.90;88.42;100682.73;115900;1192;60599;-80
2021/10/05 02:51:15;;;;;;;4.00;1.70;;;;;;;9.92;88.40;100683.14;115728;1193;59664;-80
2021/10/05 02:53:41;;;;;;;2.50;1.60;;;;;;;9.93;88.16;100680.83;115675;1192;75420;-80
2021/10/05 02:56:08;;;;;;;4.60;1.50;;;;;;;9.92;87.87;100680.16;115978;1192;59818;-80
2021/10/05 02:58:35;;;;;;;6.90;2.20;;;;;;;9.92;87.74;100674.57;115598;1193;59597;-80
2021/10/05 03:01:01;;;;;;;3.40;1.60;;;;;;;9.90;87.68;100671.59;115744;1192;62898;-80
2021/10/05 03:03:28;;;;;;;4.40;1.50;;;;;;;9.88;87.79;100668.33;115657;1193;60635;-80
2021/10/05 03:05:54;;;;;;;3.10;1.50;;;;;;;9.86;87.80;100658.05;115920;1192;59284;-80
2021/10/05 03:08:24;;;;;;;4.10;1.90;;;;;;;9.84;87.92;100651.61;115703;1192;71071;-81
2021/10/05 03:10:51;;;;;;;3.50;1.50;;;;;;;9.83;87.95;100651.05;115688;1192;72483;-80
2021/10/05 03:13:18;;;;;;;4.90;1.50;;;;;;;9.81;88.18;100648.23;115735;1192;60100;-81
2021/10/05 03:15:44;;;;;;;4.40;1.60;;;;;;;9.79;88.28;100651.10;115670;1192;60257;-81
2021/10/05 03:18:11;;;;;;;2.20;1.40;;;;;;;9.77;88.42;100650.85;115785;1192;59905;-81
2021/10/05 03:20:37;;;;;;;2.50;1.50;;;;;;;9.77;88.38;100644.70;115651;1192;70697;-81
2021/10/05 03:23:04;;;;;;;2.90;1.20;;;;;;;9.78;88.61;100644.04;115816;1192;60358;-82
2021/10/05 03:25:31;;;;;;;3.80;1.60;;;;;;;9.81;88.45;100644.66;115755;1193;62989;-82
2021/10/05 03:27:57;;;;;;;4.60;2.30;;;;;;;9.83;88.42;100640.79;115569;1193;60449;-82
2021/10/05 03:30:24;;;;;;;2.90;1.80;;;;;;;9.86;88.66;100638.00;115881;1192;59656;-81
2021/10/05 03:32:51;;;;;;;7.30;1.40;;;;;;;9.89;88.62;100637.85;115769;1192;71487;-80
2021/10/05 03:35:18;;;;;;;3.10;1.10;;;;;;;9.90;88.66;100638.41;115701;1192;72767;-80
2021/10/05 03:37:45;;;;;;;3.20;1.50;;;;;;;9.91;88.70;100634.97;115627;1192;60848;-80
2021/10/05 03:40:11;;;;;;;3.70;1.40;;;;;;;9.92;88.74;100634.81;115611;1192;60078;-79
2021/10/05 03:42:38;;;;;;;3.00;1.70;;;;;;;9.93;88.81;100632.06;115773;1192;60032;-80
2021/10/05 03:45:05;;;;;;;3.50;1.50;;;;;;;9.96;88.66;100626.73;115835;1193;59889;-80
2021/10/05 03:47:32;;;;;;;2.60;1.50;;;;;;;9.99;88.61;100624.43;115636;1193;73029;-80
2021/10/05 03:49:59;;;;;;;2.40;1.30;;;;;;;10.03;88.66;100625.64;115787;1192;63229;-80
2021/10/05 03:52:25;;;;;;;2.30;1.30;;;;;;;10.06;88.52;100622.64;115613;1193;61922;-80
2021/10/05 03:54:52;;;;;;;3.00;1.20;;;;;;;10.09;88.49;100619.08;115701;1192;61422;-80
2021/10/05 03:57:18;;;;;;;2.80;1.60;;;;;;;10.13;88.60;100607.85;115784;1192;59690;-81
2021/10/05 03:59:45;;;;;;;2.00;1.40;;;;;;;10.16;88.48;100608.73;115744;1193;73645;-80
2021/10/05 04:02:12;;;;;;;4.20;1.60;;;;;;;10.18;88.43;100605.70;115720;1192;59886;-80
2021/10/05 04:04:40;;;;;;;3.20;1.30;;;;;;;10.21;88.50;100606.38;115701;1193;61226;-80
2021/10/05 04:07:06;;;;;;;2.70;1.50;;;;;;;10.24;88.44;100611.40;115647;1192;76561;-80
2021/10/05 04:09:33;;;;;;;1.60;1.10;;;;;;;10.27;88.06;100604.85;115700;1193;71916;-81
2021/10/05 04:11:59;;;;;;;3.90;1.50;;;;;;;10.29;88.00;100596.15;115654;1192;73832;-81
2021/10/05 04:14:26;;;;;;;3.80;1.30;;;;;;;10.30;87.84;100578.95;115744;1192;59639;-80
2021/10/05 04:16:52;;;;;;;3.70;1.50;;;;;;;10.29;87.74;100564.60;115658;1186;61565;-80
2021/10/05 04:19:19;;;;;;;2.40;1.30;;;;;;;10.27;87.81;100564.19;115689;1192;59981;-80
2021/10/05 04:21:45;;;;;;;3.10;1.60;;;;;;;10.24;87.87;100564.38;115707;1192;59693;-81
2021/10/05 04:24:12;;;;;;;3.30;1.10;;;;;;;10.22;87.95;100563.23;115591;1193;59813;-80
2021/10/05 04:26:38;;;;;;;4.40;1.50;;;;;;;10.19;88.01;100564.38;115707;1192;59811;-81
2021/10/05 04:29:05;;;;;;;2.20;1.10;;;;;;;10.18;88.11;100564.48;115794;1192;59596;-85
2021/10/05 04:31:44;;;;;;;2.10;1.10;;;;;;;10.18;88.43;100562.89;115284;1196;76389;-77
2021/10/05 04:34:10;;;;;;;2.10;1.30;;;;;;;10.20;88.22;100561.33;115475;1195;59814;-77
2021/10/05 04:36:37;;;;;;;3.70;0.90;;;;;;;10.21;88.17;100559.92;115502;1195;60156;-77
2021/10/05 04:39:03;;;;;;;3.40;1.40;;;;;;;10.22;88.73;100563.03;115275;1195;59866;-77
2021/10/05 04:41:35;;;;;;;1.90;1.10;;;;;;;10.24;88.61;100569.79;115513;1195;59673;-77
2021/10/05 04:44:02;;;;;;;2.10;1.10;;;;;;;10.24;88.46;100564.41;115433;1195;76282;-77
2021/10/05 04:46:28;;;;;;;1.60;1.00;;;;;;;10.26;88.20;100557.48;115464;1195;70724;-77
2021/10/05 04:48:55;;;;;;;4.70;1.40;;;;;;;10.30;88.10;100549.48;115335;1195;72639;-79
2021/10/05 04:51:22;;;;;;;2.20;1.10;;;;;;;10.33;88.10;100543.21;115535;1195;60316;-79
2021/10/05 04:53:48;;;;;;;1.60;0.90;;;;;;;10.35;87.99;100538.72;115593;1195;60416;-78
2021/10/05 04:56:15;;;;;;;2.10;1.20;;;;;;;10.37;87.91;100532.21;115537;1195;59720;-78
2021/10/05 04:58:41;;;;;;;2.80;1.10;;;;;;;10.39;87.84;100524.50;115509;1195;59573;-78
2021/10/05 05:01:08;;;;;;;2.20;1.30;;;;;;;10.41;87.56;100520.40;115529;1195;59693;-79
2021/10/05 05:03:34;;;;;;;2.70;1.10;;;;;;;10.44;87.53;100514.22;115502;1195;61931;-78
2021/10/05 05:06:01;;;;;;;4.40;1.30;;;;;;;10.47;87.32;100513.34;115397;1195;59621;-78
2021/10/05 05:08:27;;;;;;;3.00;1.20;;;;;;;10.50;87.10;100509.98;115447;1195;59762;-79
2021/10/05 05:10:54;;;;;;;2.50;0.90;;;;;;;10.52;87.12;100510.64;115508;1195;59803;-79
2021/10/05 05:13:27;;;;;;;3.60;1.30;;;;;;;10.52;86.91;100509.33;115292;1195;59764;-79
2021/10/05 05:15:54;;;;;;;1.80;0.90;;;;;;;10.52;87.11;100502.31;115391;1195;60296;-79
2021/10/05 05:18:20;;;;;;;2.70;1.40;;;;;;;10.53;87.10;100492.30;115535;1195;59904;-78
2021/10/05 05:20:47;;;;;;;3.50;1.20;;;;;;;10.55;86.96;100488.50;115568;1195;59709;-79
2021/10/05 05:23:13;;;;;;;2.50;1.30;;;;;;;10.58;86.83;100492.77;115330;1195;59761;-78
2021/10/05 05:25:43;;;;;;;2.10;1.00;;;;;;;10.60;86.65;100487.73;115570;1194;73398;-79
2021/10/05 05:28:10;;;;;;;7.20;1.10;;;;;;;10.63;86.43;100488.86;115572;1195;63089;-78
2021/10/05 05:30:36;;;;;;;3.60;1.30;;;;;;;10.65;86.38;100493.02;115528;1195;60971;-78
2021/10/05 05:33:03;;;;;;;3.10;1.40;;;;;;;10.67;86.45;100497.80;115274;1195;76956;-78
2021/10/05 05:35:29;;;;;;;2.80;0.80;;;;;;;10.68;86.44;100498.48;115402;1195;60572;-78
2021/10/05 05:37:56;;;;;;;1.50;1.00;;;;;;;10.70;86.31;100499.90;115424;1195;59788;-78
2021/10/05 05:40:22;;;;;;;1.90;0.80;;;;;;;10.70;86.16;100498.52;115380;1195;60404;-78
2021/10/05 05:42:49;;;;;;;2.80;0.90;;;;;;;10.70;86.23;100500.79;115566;1195;59687;-78
2021/10/05 05:45:15;;;;;;;3.40;1.20;;;;;;;10.70;86.16;100506.83;115581;1195;59658;-78
2021/10/05 05:47:47;;;;;;;2.20;1.40;;;;;;;10.71;86.26;100502.17;115560;1195;60056;-79
2021/10/05 05:50:14;;;;;;;2.90;1.50;;;;;;;10.73;86.22;100499.98;115542;1195;73653;-79
2021/10/05 05:52:40;;;;;;;5.70;1.70;;;;;;;10.76;86.11;100497.36;115563;1195;59871;-78
2021/10/05 05:55:08;;;;;;;3.70;1.10;;;;;;;10.80;86.18;100493.20;115561;1195;60076;-78
2021/10/05 05:57:34;;;;;;;3.10;1.20;;;;;;;10.84;86.03;100489.05;115582;1195;75514;-78
2021/10/05 06:00:03;;;;;;;2.30;1.20;;;;;;;10.85;85.83;100493.02;115585;1195;70022;-78
2021/10/05 06:02:32;;;;;;;3.90;1.60;;;;;;;10.84;85.80;100491.63;115217;1179;124830;-73
2021/10/05 06:04:59;;;;;;;4.40;1.60;;;;;;;10.85;85.92;100488.62;115605;1193;59743;-73
2021/10/05 06:07:25;;;;;;;2.20;1.20;;;;;;;10.86;85.78;100490.39;115529;1193;61344;-74
2021/10/05 06:09:52;;;;;;;4.10;1.40;;;;;;;10.89;85.71;100487.38;115571;1193;60322;-75
2021/10/05 06:12:20;;;;;;;1.90;1.20;;;;;;;10.94;85.88;100486.29;115612;1193;72397;-75
2021/10/05 06:14:47;;;;;;;3.60;1.80;;;;;;;10.98;85.47;100490.65;115538;1194;71523;-74
2021/10/05 06:17:13;;;;;;;3.30;1.60;;;;;;;11.02;85.35;100491.11;115609;1194;61637;-74
2021/10/05 06:19:40;;;;;;;4.30;1.80;;;;;;;11.02;85.34;100487.35;115562;1195;61264;-74
2021/10/05 06:22:06;;;;;;;4.30;1.80;;;;;;;11.01;85.46;100486.20;115613;1193;60035;-74
2021/10/05 06:24:33;;;;;;;4.30;1.60;;;;;;;11.01;85.49;100485.75;115587;1193;59698;-74
2021/10/05 06:26:59;;;;;;;1.80;1.10;;;;;;;11.00;85.55;100482.13;115596;1194;59604;-74
2021/10/05 06:29:26;;;;;;;2.80;1.70;;;;;;;10.98;85.70;100480.23;115599;1193;62962;-74
2021/10/05 06:31:53;;;;;;;4.60;1.50;;;;;;;10.98;85.81;100480.39;115660;1193;60376;-73
2021/10/05 06:34:19;;;;;;;2.70;1.60;;;;;;;10.99;85.71;100483.55;115476;1194;75741;-74
2021/10/05 06:36:46;;;;;;;1.80;1.30;;;;;;;10.99;85.81;100487.20;115631;1194;59571;-74
2021/10/05 06:39:12;;;;;;;2.10;1.30;;;;;;;11.01;85.82;100484.65;115579;1194;59652;-73
2021/10/05 06:41:39;;;;;;;4.00;1.40;;;;;;;11.04;85.80;100483.47;115514;1195;59583;-73
2021/10/05 06:44:06;;;;;;;2.70;1.40;;;;;;;11.07;85.90;100484.42;115640;1195;60405;-74
2021/10/05 06:46:32;;;;;;;2.30;1.40;;;;;;;11.09;85.89;100483.20;115597;1194;76312;-74
2021/10/05 06:48:59;;;;;;;2.60;1.20;;;;;;;11.14;85.82;100480.58;115533;1195;71223;-74
2021/10/05 06:51:25;;;;;;;3.60;1.60;;;;;;;11.16;85.99;100477.82;115594;1194;73599;-74
2021/10/05 06:53:52;;;;;;;2.70;1.30;;;;;;;11.17;85.99;100474.08;115527;1195;60072;-74
2021/10/05 06:56:19;;;;;;;4.20;1.20;;;;;;;11.19;85.85;100468.62;115544;1195;60253;-74
2021/10/05 06:58:46;;;;;;;2.90;1.50;;;;;;;11.19;85.90;100462.14;115641;1194;75192;-74
2021/10/05 07:01:12;;;;;;;3.10;1.30;;;;;;;11.20;86.04;100456.76;115609;1194;59731;-75
2021/10/05 07:03:39;;;;;;;3.00;1.50;;;;;;;11.21;86.15;100451.54;115568;1195;72566;-74
2021/10/05 07:06:05;;;;;;;2.10;1.50;;;;;;;11.21;86.11;100453.63;115599;1195;59621;-74
2021/10/05 07:08:32;;;;;;;3.00;1.40;;;;;;;11.24;86.21;100447.77;115442;1194;59671;-74
2021/10/05 07:10:59;;;;;;;5.10;2.10;;;;;;;11.28;86.27;100449.82;115433;1195;60076;-74
2021/10/05 07:13:26;;;;;;;3.50;2.20;;;;;;;11.31;86.38;100446.19;115548;1195;71168;-74
2021/10/05 07:15:52;;;;;;;2.80;1.80;;;;;;;11.36;86.58;100442.62;115476;1195;73365;-74
2021/10/05 07:18:19;;;;;;;3.20;1.80;;;;;;;11.40;86.73;100445.12;115584;1194;61049;-74
2021/10/05 07:20:45;;;;;;;3.80;2.00;;;;;;;11.42;86.68;100442.60;115600;1194;59686;-74
2021/10/05 07:23:12;;;;;;;3.90;1.70;;;;;;;11.43;86.80;100437.98;115595;1195;59927;-74
2021/10/05 07:25:39;;;;;;;3.20;1.70;;;;;;;11.43;87.01;100434.16;115509;1195;71032;-74
2021/10/05 07:28:10;;;;;;;6.80;2.50;;;;;;;11.44;87.19;100430.82;115563;1195;73721;-74
2021/10/05 07:30:37;;;;;;;3.30;2.00;;;;;;;11.48;87.30;100428.86;115599;1194;61897;-74
2021/10/05 07:33:04;;;;;;;5.30;2.30;;;;;;;11.50;87.52;100429.50;115603;1194;60200;-75
2021/10/05 07:35:31;;;;;;;5.40;2.80;;;;;;;11.51;88.01;100430.41;115635;1194;75412;-75
2021/10/05 07:37:58;;;;;;;5.60;3.20;;;;;;;11.52;88.27;100431.89;115596;1194;71058;-74
2021/10/05 07:40:25;;;;;;;5.40;2.90;;;;;;;11.50;88.67;100433.14;115627;1195;73742;-75
2021/10/05 07:42:54;;;;;;;6.90;3.70;;;;;;;11.47;89.10;100430.13;115530;1194;60299;-74
2021/10/05 07:45:23;;;;;;;6.60;3.80;;;;;;;11.46;89.51;100427.24;115608;1195;60314;-75
2021/10/05 07:47:49;;;;;;;6.50;4.80;;;;;;;11.46;89.82;100421.77;115536;1195;76546;-75
2021/10/05 07:50:17;;;;;;;4.80;3.10;;;;;;;11.44;90.25;100419.70;115570;1194;71052;-75
2021/10/05 07:52:44;;;;;;;5.60;3.00;;;;;;;11.43;90.24;100417.31;115529;1195;73302;-75
2021/10/05 07:55:11;;;;;;;6.50;3.20;;;;;;;11.42;90.37;100411.71;115534;1194;61610;-74
2021/10/05 07:57:37;;;;;;;4.40;2.60;;;;;;;11.45;90.31;100406.64;115631;1194;60970;-75
2021/10/05 08:00:08;;;;;;;5.00;3.30;;;;;;;11.51;90.59;100405.63;115580;1195;75365;-75
2021/10/05 08:02:35;;;;;;;7.00;4.00;;;;;;;11.57;90.36;100403.98;115604;1195;70937;-74
2021/10/05 08:05:02;;;;;;;5.70;2.90;;;;;;;11.65;90.63;100405.16;115602;1195;73828;-74
2021/10/05 08:07:29;;;;;;;4.70;2.80;;;;;;;11.73;90.43;100401.11;115527;1195;61809;-74
2021/10/05 08:09:57;;;;;;;4.50;2.90;;;;;;;11.77;90.48;100401.65;115595;1195;60185;-74
2021/10/05 08:12:24;;;;;;;6.80;3.40;;;;;;;11.79;90.24;100396.73;115628;1194;74357;-75
2021/10/05 08:14:51;;;;;;;4.80;2.20;;;;;;;11.86;90.51;100393.34;115414;1195;71011;-75
2021/10/05 08:17:19;;;;;;;5.20;2.60;;;;;;;11.91;90.55;100390.77;115551;1194;73672;-75
2021/10/05 08:19:47;;;;;;;5.00;3.50;;;;;;;11.96;90.49;100389.95;115497;1195;63055;-75
2021/10/05 08:22:14;;;;;;;4.10;2.20;;;;;;;12.01;90.30;100386.73;115611;1195;59956;-75
2021/10/05 08:24:41;;;;;;;4.60;2.50;;;;;;;12.05;90.46;100389.05;115624;1195;75816;-75
2021/10/05 08:27:10;;;;;;;6.00;2.40;;;;;;;12.07;90.30;100384.71;115567;1195;71897;-75
2021/10/05 08:29:37;;;;;;;6.20;2.40;;;;;;;12.05;90.15;100387.21;115592;1194;60503;-75
2021/10/05 08:32:05;;;;;;;3.10;1.80;;;;;;;12.04;90.27;100387.02;115438;1195;62974;-75
2021/10/05 08:34:31;;;;;;;3.80;2.00;;;;;;;12.02;90.04;100381.61;115521;1195;61617;-75
2021/10/05 08:36:58;;;;;;;4.30;1.80;;;;;;;12.01;89.91;100377.85;115584;1195;62541;-75
2021/10/05 08:39:25;;;;;;;4.50;2.20;;;;;;;12.03;90.13;100375.08;115539;1195;72036;-74
2021/10/05 08:41:51;;;;;;;5.60;2.30;;;;;;;12.06;90.37;100372.58;115565;1195;72592;-75
2021/10/05 08:44:18;;;;;;;5.10;2.40;;;;;;;12.12;90.44;100368.32;115392;1195;62004;-75
2021/10/05 08:46:44;;;;;;;3.40;1.90;;;;;;;12.17;90.37;100363.20;115610;1194;59622;-75
2021/10/05 08:49:11;;;;;;;3.50;1.80;;;;;;;12.20;90.25;100360.61;115562;1195;75143;-76
2021/10/05 08:51:38;;;;;;;3.30;1.90;;;;;;;12.20;90.01;100358.77;115646;1187;71163;-76
2021/10/05 08:54:08;;;;;;;3.40;2.20;;;;;;;12.20;90.20;100349.93;115508;1195;72075;-75
2021/10/05 08:56:35;;;;;;;5.10;2.50;;;;;;;12.21;90.09;100348.27;115593;1195;62012;-75
2021/10/05 08:59:01;;;;;;;3.00;1.80;;;;;;;12.26;89.97;100343.88;115544;1187;61399;-76
2021/10/05 09:01:34;;;;;;;2.90;1.60;;;;;;;12.26;89.85;100335.31;115573;1195;76607;-76
2021/10/05 09:04:03;;;;;;;3.40;1.60;;;;;;;12.23;89.58;100335.44;115573;1194;72642;-75
2021/10/05 09:06:31;;;;;;;3.90;2.00;;;;;;;12.19;89.16;100328.48;115604;1194;72537;-75
2021/10/05 09:09:01;;;;;;;3.10;1.70;;;;;;;12.17;89.15;100324.67;115578;1195;61941;-75
2021/10/05 09:11:47;;;;;;;4.60;1.60;;;;;;;12.18;89.58;100325.85;115602;1194;60208;-75
2021/10/05 09:14:15;;;;;;;2.70;1.70;;;;;;;12.20;89.63;100321.66;115544;1194;76420;-75
2021/10/05 09:16:43;;;;;;;3.70;2.20;;;;;;;12.20;89.68;100316.02;115613;1195;70500;-75
2021/10/05 09:19:15;;;;;;;4.50;1.80;;;;;;;12.22;89.77;100310.80;115515;1194;74575;-75
2021/10/05 09:21:47;;;;;;;3.80;1.60;;;;;;;12.28;89.92;100308.53;115566;1194;63260;-74
2021/10/05 09:24:21;;;;;;;3.10;2.00;;;;;;;12.31;89.56;100304.25;115540;1195;60471;-75
2021/10/05 09:26:57;;;;;;;2.80;1.70;;;;;;;12.33;89.63;100300.59;115558;1194;74169;-74
2021/10/05 09:29:28;;;;;;;4.20;2.00;;;;;;;12.34;89.17;100298.83;115574;1195;71029;-74
2021/10/05 09:31:59;;;;;;;3.00;1.70;;;;;;;12.36;89.12;100299.10;115523;1195;74000;-74
2021/10/05 09:34:51;;;;;;;2.20;1.50;;;;;;;12.37;88.99;100281.25;115540;1194;62984;-74
2021/10/05 09:37:20;;;;;;;2.70;1.20;;;;;;;12.44;88.70;100272.36;115428;1196;60623;-74
2021/10/05 09:39:53;;;;;;;3.00;1.60;;;;;;;12.49;88.35;100267.55;115690;1194;75404;-75
2021/10/05 09:42:29;;;;;;;4.70;2.10;;;;;;;12.52;88.31;100271.70;115559;1195;71642;-75
2021/10/05 09:45:06;;;;;;;6.30;2.40;;;;;;;12.61;88.68;100263.80;115557;1194;71880;-75
2021/10/05 09:47:40;;;;;;;4.70;1.70;;;;;;;12.73;88.60;100260.63;115546;1195;64123;-75
2021/10/05 09:50:31;;;;;;;4.90;2.30;;;;;;;12.83;88.36;100260.23;115592;1194;60102;-75
2021/10/05 09:53:24;;;;;;;4.00;1.80;;;;;;;12.93;88.72;100260.14;115520;1195;75531;-75
2021/10/05 09:55:51;;;;;;;3.80;2.00;;;;;;;13.02;88.42;100258.43;115589;1195;72197;-75
2021/10/05 09:58:17;;;;;;;5.20;2.00;;;;;;;13.06;87.51;100256.56;115516;1187;59722;-75
2021/10/05 10:00:48;;;;;;;6.80;2.40;;;;;;;13.12;87.14;100252.80;115560;1194;59646;-75
2021/10/05 10:03:17;;;;;;;3.80;1.50;;;;;;;13.15;86.91;100253.42;115522;1195;61227;-75
2021/10/05 10:05:46;;;;;;;4.70;1.60;;;;;;;13.19;86.55;100258.59;115552;1195;75274;-75
2021/10/05 10:08:14;;;;;;;4.90;1.30;;;;;;;13.23;86.71;100256.31;115599;1194;70748;-75
2021/10/05 10:10:41;;;;;;;2.50;1.00;;;;;;;13.24;86.20;100255.52;115566;1195;72898;-75
2021/10/05 10:13:10;;;;;;;2.40;1.10;;;;;;;13.29;85.97;100261.20;115619;1194;60132;-75
2021/10/05 10:15:40;;;;;;;2.50;1.10;;;;;;;13.37;85.54;100264.79;115563;1195;60361;-74
2021/10/05 10:18:12;;;;;;;1.90;1.20;;;;;;;13.52;84.63;100263.69;115605;1194;76083;-75
2021/10/05 10:20:41;;;;;;;4.00;1.00;;;;;;;13.68;84.23;100263.73;115581;1195;70135;-75
2021/10/05 10:23:23;;;;;;;2.60;1.20;;;;;;;13.80;83.66;100261.30;115572;1195;72792;-75
2021/10/05 10:26:05;;;;;;;2.80;1.00;;;;;;;13.89;83.35;100253.33;115530;1195;60322;-75
2021/10/05 10:28:41;;;;;;;3.10;1.20;;;;;;;14.04;82.94;100249.00;115463;1195;59679;-75
2021/10/05 10:31:11;;;;;;;4.90;1.30;;;;;;;14.15;82.62;100251.96;115514;1195;75368;-75
2021/10/05 10:33:46;;;;;;;2.40;1.60;;;;;;;14.23;82.20;100253.46;115614;1194;72092;-74
2021/10/05 10:36:14;;;;;;;4.00;1.10;;;;;;;14.35;81.56;100250.52;115611;1195;72610;-75
2021/10/05 10:38:45;;;;;;;2.00;0.70;;;;;;;14.40;81.32;100247.50;115547;1195;62361;-75
2021/10/05 10:41:18;;;;;;;2.70;1.20;;;;;;;14.45;80.74;100242.35;115612;1194;59935;-75
2021/10/05 10:44:00;;;;;;;1.10;0.60;;;;;;;14.49;80.40;100242.34;115581;1195;75450;-75
2021/10/05 10:46:36;;;;;;;2.80;0.70;;;;;;;14.46;80.11;100238.81;115591;1195;71195;-75
2021/10/05 10:49:11;;;;;;;2.70;0.80;;;;;;;14.36;80.02;100243.57;115582;1195;73270;-75
2021/10/05 10:51:41;;;;;;;1.80;1.20;;;;;;;14.26;79.86;100242.13;115599;1194;61979;-75
2021/10/05 10:54:12;;;;;;;1.70;1.10;;;;;;;14.17;80.12;100230.46;115587;1194;61026;-74
2021/10/05 10:56:40;;;;;;;2.00;1.10;;;;;;;14.11;80.31;100232.58;115598;1195;76538;-75
2021/10/05 10:59:09;;;;;;;1.10;0.70;;;;;;;14.07;80.67;100225.80;115627;1194;69807;-75
2021/10/05 11:01:45;;;;;;;0.90;0.60;;;;;;;14.01;80.94;100220.41;115573;1195;72562;-75
2021/10/05 11:04:15;;;;;;;2.00;0.90;;;;;;;13.95;79.88;100214.68;115419;1196;62784;-75
2021/10/05 11:06:50;;;;;;;1.10;0.60;;;;;;;13.90;80.17;100208.86;115570;1195;61483;-75
2021/10/05 11:09:17;;;;;;;1.30;0.70;;;;;;;13.88;81.12;100211.48;115550;1195;75440;-75
2021/10/05 11:11:49;;;;;;;2.30;0.70;;;;;;;13.92;81.20;100202.34;115599;1194;70821;-75
2021/10/05 11:14:20;;;;;;;2.00;0.90;;;;;;;13.97;81.43;100201.05;115561;1194;73620;-76
2021/10/05 11:17:03;;;;;;;1.40;0.80;;;;;;;14.00;80.84;100206.51;115552;1195;61272;-75
2021/10/05 11:19:35;;;;;;;2.10;1.00;;;;;;;14.02;79.75;100201.73;115529;1195;60365;-75
2021/10/05 11:22:07;;;;;;;1.70;0.90;;;;;;;14.02;79.49;100202.64;115555;1194;76449;-74
2021/10/05 11:24:44;;;;;;;1.40;0.70;;;;;;;14.01;79.86;100206.95;115529;1195;71082;-75
2021/10/05 11:27:15;;;;;;;1.40;0.70;;;;;;;14.03;79.65;100210.15;115574;1194;72251;-74